createdAt,value
2018-09-08T00:00:39.250Z,0
2018-09-08T00:01:38.966Z,0
2018-09-08T00:02:39.193Z,0
2018-09-08T00:03:39.421Z,0
2018-09-08T00:04:39.151Z,0
2018-09-08T00:05:39.199Z,0
2018-09-08T00:06:39.415Z,0
2018-09-08T00:07:38.912Z,0
2018-09-08T00:08:38.901Z,0
2018-09-08T00:09:38.917Z,0
2018-09-08T00:10:39.032Z,0
2018-09-08T00:11:39.142Z,0
2018-09-08T00:12:38.631Z,0
2018-09-08T00:13:38.682Z,0
2018-09-08T00:14:39.158Z,0
2018-09-08T00:15:39.452Z,0
2018-09-08T00:16:39.132Z,0
2018-09-08T00:17:39.582Z,0
2018-09-08T00:18:38.873Z,0
2018-09-08T00:19:38.872Z,0
2018-09-08T00:20:38.645Z,0
2018-09-08T00:21:39.123Z,0
2018-09-08T00:22:38.611Z,0
2018-09-08T00:23:39.124Z,0
2018-09-08T00:24:39.384Z,0
2018-09-08T00:25:39.195Z,0
2018-09-08T00:26:38.864Z,0
2018-09-08T00:27:39.383Z,0
2018-09-08T00:28:38.871Z,0
2018-09-08T00:29:39.142Z,0
2018-09-08T00:30:39.472Z,0
2018-09-08T00:31:39.130Z,0
2018-09-08T00:32:39.127Z,0
2018-09-08T00:33:38.866Z,0
2018-09-08T00:34:39.116Z,0
2018-09-08T00:35:39.209Z,0
2018-09-08T00:36:39.149Z,0
2018-09-08T00:37:38.635Z,0
2018-09-08T00:38:39.578Z,0
2018-09-08T00:39:38.865Z,0
2018-09-08T00:40:38.983Z,0
2018-09-08T00:41:38.619Z,0
2018-09-08T00:42:38.871Z,0
2018-09-08T00:43:38.978Z,0
2018-09-08T00:44:39.115Z,0
2018-09-08T00:45:39.272Z,0
2018-09-08T00:46:39.366Z,0
2018-09-08T00:47:38.601Z,0
2018-09-08T00:48:39.122Z,0
2018-09-08T00:49:38.585Z,0
2018-09-08T00:50:38.907Z,0
2018-09-08T00:51:39.111Z,0
2018-09-08T00:52:38.880Z,0
2018-09-08T00:53:39.116Z,0
2018-09-08T00:54:38.591Z,0
2018-09-08T00:55:39.133Z,0
2018-09-08T00:56:39.084Z,0
2018-09-08T00:57:39.098Z,0
2018-09-08T00:58:39.069Z,0
2018-09-08T00:59:39.080Z,0
2018-09-08T01:00:39.357Z,0
2018-09-08T01:01:39.341Z,0
2018-09-08T01:02:39.092Z,0
2018-09-08T01:03:39.475Z,0
2018-09-08T01:04:38.818Z,0
2018-09-08T01:05:39.347Z,0
2018-09-08T01:06:39.078Z,0
2018-09-08T01:07:39.337Z,0
2018-09-08T01:08:39.368Z,0
2018-09-08T01:09:39.064Z,0
2018-09-08T01:10:38.795Z,0
2018-09-08T01:11:39.341Z,0
2018-09-08T01:12:38.572Z,0
2018-09-08T01:13:38.564Z,0
2018-09-08T01:14:39.071Z,0
2018-09-08T01:15:39.082Z,0
2018-09-08T01:16:39.426Z,0
2018-09-08T01:17:39.061Z,0
2018-09-08T01:18:39.309Z,0
2018-09-08T01:19:38.803Z,0
2018-09-08T01:20:38.814Z,0
2018-09-08T01:21:38.796Z,0
2018-09-08T01:22:39.085Z,0
2018-09-08T01:23:39.047Z,0
2018-09-08T01:24:39.062Z,0
2018-09-08T01:25:38.910Z,0
2018-09-08T01:26:39.318Z,0
2018-09-08T01:27:39.859Z,0
2018-09-08T01:28:39.308Z,0
2018-09-08T01:29:38.773Z,0
2018-09-08T01:30:39.355Z,0
2018-09-08T01:31:39.299Z,0
2018-09-08T01:32:39.297Z,0
2018-09-08T01:33:39.311Z,0
2018-09-08T01:34:39.037Z,0
2018-09-08T01:35:39.455Z,0
2018-09-08T01:36:39.036Z,0
2018-09-08T01:37:39.300Z,0
2018-09-08T01:38:39.038Z,0
2018-09-08T01:39:39.030Z,0
2018-09-08T01:40:38.804Z,0
2018-09-08T01:41:39.295Z,0
2018-09-08T01:42:38.752Z,0
2018-09-08T01:43:38.756Z,0
2018-09-08T01:44:38.494Z,0
2018-09-08T01:45:38.583Z,0
2018-09-08T01:46:38.767Z,0
2018-09-08T01:47:39.000Z,0
2018-09-08T01:48:39.006Z,0
2018-09-08T01:49:39.270Z,0
2018-09-08T01:50:39.057Z,0
2018-09-08T01:51:38.485Z,0
2018-09-08T01:52:39.263Z,0
2018-09-08T01:53:38.476Z,0
2018-09-08T01:54:38.736Z,0
2018-09-08T01:55:38.861Z,0
2018-09-08T01:56:39.250Z,0
2018-09-08T01:57:39.272Z,0
2018-09-08T01:58:38.726Z,0
2018-09-08T01:59:39.269Z,0
2018-09-08T02:00:38.786Z,0
2018-09-08T02:01:39.271Z,0
2018-09-08T02:02:39.015Z,0
2018-09-08T02:03:38.982Z,0
2018-09-08T02:04:39.240Z,0
2018-09-08T02:05:39.014Z,0
2018-09-08T02:06:38.470Z,0
2018-09-08T02:07:38.723Z,0
2018-09-08T02:08:38.709Z,0
2018-09-08T02:09:38.457Z,0
2018-09-08T02:10:38.984Z,0
2018-09-08T02:11:39.231Z,0
2018-09-08T02:12:38.975Z,0
2018-09-08T02:13:38.956Z,0
2018-09-08T02:14:38.712Z,0
2018-09-08T02:15:39.025Z,0
2018-09-08T02:16:39.224Z,0
2018-09-08T02:17:39.230Z,0
2018-09-08T02:18:39.196Z,0
2018-09-08T02:19:38.950Z,0
2018-09-08T02:20:38.968Z,0
2018-09-08T02:21:38.957Z,0
2018-09-08T02:22:38.686Z,0
2018-09-08T02:23:38.939Z,0
2018-09-08T02:24:38.977Z,0
2018-09-08T02:25:39.130Z,0
2018-09-08T02:26:39.214Z,0
2018-09-08T02:27:38.960Z,0
2018-09-08T02:28:39.205Z,0
2018-09-08T02:29:38.937Z,0
2018-09-08T02:30:39.229Z,0
2018-09-08T02:31:39.224Z,0
2018-09-08T02:32:38.936Z,0
2018-09-08T02:33:39.186Z,0
2018-09-08T02:34:38.943Z,0
2018-09-08T02:35:39.290Z,0
2018-09-08T02:36:39.184Z,0
2018-09-08T02:37:38.424Z,0
2018-09-08T02:38:38.735Z,0
2018-09-08T02:39:38.937Z,0
2018-09-08T02:40:38.960Z,0
2018-09-08T02:41:38.643Z,0
2018-09-08T02:42:38.929Z,0
2018-09-08T02:43:38.899Z,0
2018-09-08T02:44:38.952Z,0
2018-09-08T02:45:39.205Z,0
2018-09-08T02:46:38.920Z,0
2018-09-08T02:47:39.163Z,0
2018-09-08T02:48:39.165Z,0
2018-09-08T02:49:38.892Z,0
2018-09-08T02:50:38.928Z,0
2018-09-08T02:51:39.154Z,0
2018-09-08T02:52:39.154Z,0
2018-09-08T02:53:38.888Z,0
2018-09-08T02:54:38.903Z,0
2018-09-08T02:55:39.185Z,0
2018-09-08T02:56:39.137Z,0
2018-09-08T02:57:39.132Z,0
2018-09-08T02:58:39.145Z,0
2018-09-08T02:59:38.899Z,0
2018-09-08T03:00:38.926Z,0
2018-09-08T03:01:38.933Z,0
2018-09-08T03:02:38.872Z,0
2018-09-08T03:03:38.619Z,0
2018-09-08T03:04:38.865Z,0
2018-09-08T03:05:39.208Z,0
2018-09-08T03:06:38.894Z,0
2018-09-08T03:07:38.878Z,0
2018-09-08T03:08:39.104Z,0
2018-09-08T03:09:38.869Z,0
2018-09-08T03:10:39.154Z,0
2018-09-08T03:11:38.844Z,0
2018-09-08T03:12:38.936Z,0
2018-09-08T03:13:39.177Z,0
2018-09-08T03:14:39.091Z,0
2018-09-08T03:15:38.954Z,0
2018-09-08T03:16:38.596Z,0
2018-09-08T03:17:38.584Z,0
2018-09-08T03:18:39.648Z,0
2018-09-08T03:19:38.599Z,0
2018-09-08T03:20:39.105Z,0
2018-09-08T03:21:39.091Z,0
2018-09-08T03:22:38.575Z,0
2018-09-08T03:23:38.811Z,0
2018-09-08T03:24:39.091Z,0
2018-09-08T03:25:38.894Z,0
2018-09-08T03:26:38.827Z,0
2018-09-08T03:27:39.068Z,0
2018-09-08T03:28:38.825Z,0
2018-09-08T03:29:39.069Z,0
2018-09-08T03:30:38.613Z,0
2018-09-08T03:31:38.826Z,0
2018-09-08T03:32:38.560Z,0
2018-09-08T03:33:38.546Z,0
2018-09-08T03:34:39.048Z,0
2018-09-08T03:35:39.083Z,0
2018-09-08T03:36:38.849Z,0
2018-09-08T03:37:39.043Z,0
2018-09-08T03:38:38.784Z,0
2018-09-08T03:39:39.034Z,0
2018-09-08T03:40:38.825Z,0
2018-09-08T03:41:39.033Z,0
2018-09-08T03:42:39.041Z,0
2018-09-08T03:43:38.777Z,0
2018-09-08T03:44:38.782Z,0
2018-09-08T03:45:38.868Z,0
2018-09-08T03:46:39.039Z,0
2018-09-08T03:47:38.768Z,0
2018-09-08T03:48:39.565Z,0
2018-09-08T03:49:38.513Z,0
2018-09-08T03:50:38.865Z,0
2018-09-08T03:51:38.754Z,0
2018-09-08T03:52:39.029Z,0
2018-09-08T03:53:38.749Z,0
2018-09-08T03:54:38.757Z,0
2018-09-08T03:55:38.559Z,0
2018-09-08T03:56:38.490Z,0
2018-09-08T03:57:38.999Z,0
2018-09-08T03:58:39.001Z,0
2018-09-08T03:59:38.494Z,0
2018-09-08T04:00:38.533Z,0
2018-09-08T04:01:38.481Z,0
2018-09-08T04:02:38.986Z,0
2018-09-08T04:03:38.475Z,0
2018-09-08T04:04:38.729Z,0
2018-09-08T04:05:39.026Z,0
2018-09-08T04:06:38.474Z,0
2018-09-08T04:07:38.757Z,0
2018-09-08T04:08:38.725Z,0
2018-09-08T04:09:38.460Z,0
2018-09-08T04:10:39.010Z,0
2018-09-08T04:11:38.486Z,0
2018-09-08T04:12:38.484Z,0
2018-09-08T04:13:38.698Z,0
2018-09-08T04:14:38.708Z,0
2018-09-08T04:15:39.063Z,4
2018-09-08T04:16:38.969Z,4
2018-09-08T04:17:38.438Z,0
2018-09-08T04:18:38.450Z,0
2018-09-08T04:19:39.220Z,4
2018-09-08T04:20:38.704Z,4
2018-09-08T04:21:38.709Z,4
2018-09-08T04:22:38.933Z,4
2018-09-08T04:23:38.932Z,8
2018-09-08T04:24:38.414Z,8
2018-09-08T04:25:38.939Z,12
2018-09-08T04:26:38.674Z,12
2018-09-08T04:27:38.938Z,12
2018-09-08T04:28:38.661Z,16
2018-09-08T04:29:39.097Z,20
2018-09-08T04:30:38.442Z,20
2018-09-08T04:31:38.917Z,24
2018-09-08T04:32:38.661Z,32
2018-09-08T04:33:38.906Z,32
2018-09-08T04:34:38.644Z,40
2018-09-08T04:35:38.510Z,48
2018-09-08T04:36:38.662Z,56
2018-09-08T04:37:38.903Z,68
2018-09-08T04:38:38.378Z,76
2018-09-08T04:39:38.909Z,88
2018-09-08T04:40:38.694Z,96
2018-09-08T04:41:38.884Z,112
2018-09-08T04:42:38.947Z,128
2018-09-08T04:43:38.377Z,144
2018-09-08T04:44:38.382Z,164
2018-09-08T04:45:38.418Z,180
2018-09-08T04:46:38.643Z,196
2018-09-08T04:47:38.875Z,220
2018-09-08T04:48:38.888Z,240
2018-09-08T04:49:39.141Z,264
2018-09-08T04:50:38.449Z,284
2018-09-08T04:51:38.350Z,312
2018-09-08T04:52:38.844Z,340
2018-09-08T04:53:38.347Z,376
2018-09-08T04:54:38.861Z,408
2018-09-08T04:55:38.348Z,440
2018-09-08T04:56:38.345Z,484
2018-09-08T04:57:38.582Z,520
2018-09-08T04:58:38.586Z,564
2018-09-08T04:59:38.072Z,608
2018-09-08T05:00:38.618Z,652
2018-09-08T05:01:38.319Z,700
2018-09-08T05:02:38.373Z,744
2018-09-08T05:03:38.829Z,788
2018-09-08T05:04:38.838Z,836
2018-09-08T05:05:38.350Z,880
2018-09-08T05:06:38.568Z,928
2018-09-08T05:07:38.555Z,980
2018-09-08T05:08:38.323Z,1036
2018-09-08T05:09:38.824Z,1092
2018-09-08T05:10:38.633Z,1144
2018-09-08T05:11:38.550Z,1204
2018-09-08T05:12:38.820Z,1260
2018-09-08T05:13:38.305Z,1328
2018-09-08T05:14:38.807Z,1404
2018-09-08T05:15:38.627Z,1480
2018-09-08T05:16:38.568Z,1560
2018-09-08T05:17:38.280Z,1744
2018-09-08T05:18:38.545Z,2212
2018-09-08T05:19:41.746Z,2772
2018-09-08T05:20:38.810Z,3080
2018-09-08T05:21:38.568Z,3392
2018-09-08T05:22:38.793Z,3660
2018-09-08T05:23:38.773Z,3784
2018-09-08T05:24:38.786Z,3896
2018-09-08T05:25:38.357Z,3988
2018-09-08T05:26:38.789Z,4104
2018-09-08T05:27:38.532Z,4228
2018-09-08T05:28:39.109Z,4316
2018-09-08T05:29:38.794Z,4320
2018-09-08T05:30:38.531Z,4316
2018-09-08T05:31:38.255Z,4436
2018-09-08T05:32:38.257Z,4484
2018-09-08T05:33:38.261Z,4580
2018-09-08T05:34:38.784Z,4576
2018-09-08T05:35:38.037Z,4552
2018-09-08T05:36:38.309Z,4576
2018-09-08T05:37:38.522Z,4080
2018-09-08T05:38:38.535Z,3640
2018-09-08T05:39:38.796Z,2856
2018-09-08T05:40:38.627Z,2492
2018-09-08T05:41:38.264Z,2460
2018-09-08T05:42:38.782Z,2408
2018-09-08T05:43:38.782Z,2376
2018-09-08T05:44:38.530Z,2368
2018-09-08T05:45:38.567Z,2376
2018-09-08T05:46:38.263Z,2396
2018-09-08T05:47:38.273Z,2420
2018-09-08T05:48:38.275Z,2464
2018-09-08T05:49:41.739Z,2744
2018-09-08T05:50:38.008Z,3312
2018-09-08T05:51:38.536Z,3336
2018-09-08T05:52:38.548Z,3344
2018-09-08T05:53:38.282Z,3360
2018-09-08T05:54:38.778Z,3372
2018-09-08T05:55:38.280Z,3348
2018-09-08T05:56:38.841Z,3328
2018-09-08T05:57:38.528Z,3328
2018-09-08T05:58:38.845Z,3332
2018-09-08T05:59:38.271Z,3344
2018-09-08T06:00:38.265Z,3344
2018-09-08T06:01:38.519Z,3344
2018-09-08T06:02:38.267Z,3352
2018-09-08T06:03:38.521Z,3364
2018-09-08T06:04:38.519Z,3380
2018-09-08T06:05:39.079Z,3396
2018-09-08T06:06:38.776Z,3440
2018-09-08T06:07:38.762Z,3476
2018-09-08T06:08:38.782Z,3504
2018-09-08T06:09:38.768Z,3540
2018-09-08T06:10:38.583Z,3584
2018-09-08T06:11:38.263Z,3620
2018-09-08T06:12:38.251Z,3656
2018-09-08T06:13:38.510Z,3692
2018-09-08T06:14:38.506Z,3736
2018-09-08T06:15:38.593Z,3788
2018-09-08T06:16:38.516Z,3864
2018-09-08T06:17:38.237Z,3968
2018-09-08T06:18:38.511Z,3964
2018-09-08T06:19:38.596Z,4064
2018-09-08T06:20:38.831Z,4196
2018-09-08T06:21:38.505Z,4396
2018-09-08T06:22:38.527Z,4648
2018-09-08T06:23:38.749Z,4896
2018-09-08T06:24:38.773Z,5148
2018-09-08T06:25:38.902Z,5388
2018-09-08T06:26:38.506Z,5560
2018-09-08T06:27:38.504Z,6052
2018-09-08T06:28:38.481Z,6392
2018-09-08T06:29:38.513Z,6884
2018-09-08T06:30:38.817Z,7348
2018-09-08T06:31:38.006Z,7812
2018-09-08T06:32:38.745Z,8288
2018-09-08T06:33:38.635Z,8568
2018-09-08T06:34:38.228Z,8580
2018-09-08T06:35:38.309Z,8348
2018-09-08T06:36:38.779Z,7952
2018-09-08T06:37:38.500Z,7764
2018-09-08T06:38:38.481Z,7888
2018-09-08T06:39:38.269Z,8212
2018-09-08T06:40:38.295Z,8596
2018-09-08T06:41:37.982Z,8952
2018-09-08T06:42:38.242Z,8712
2018-09-08T06:43:38.247Z,9004
2018-09-08T06:44:38.003Z,9264
2018-09-08T06:45:38.565Z,9412
2018-09-08T06:46:38.247Z,9524
2018-09-08T06:47:38.247Z,9616
2018-09-08T06:48:38.255Z,9700
2018-09-08T06:49:37.995Z,9792
2018-09-08T06:50:38.848Z,9856
2018-09-08T06:51:38.520Z,9932
2018-09-08T06:52:38.529Z,9996
2018-09-08T06:53:38.260Z,10076
2018-09-08T06:54:38.782Z,10140
2018-09-08T06:55:38.871Z,10208
2018-09-08T06:56:38.273Z,10336
2018-09-08T06:57:38.029Z,10484
2018-09-08T06:58:38.557Z,10616
2018-09-08T06:59:38.309Z,10736
2018-09-08T07:00:38.299Z,10724
2018-09-08T07:01:38.607Z,10340
2018-09-08T07:02:38.569Z,9780
2018-09-08T07:03:39.014Z,9216
2018-09-08T07:04:38.828Z,9028
2018-09-08T07:05:38.591Z,8964
2018-09-08T07:06:38.303Z,8632
2018-09-08T07:07:38.555Z,8304
2018-09-08T07:08:38.324Z,8276
2018-09-08T07:09:38.572Z,8264
2018-09-08T07:10:38.983Z,8276
2018-09-08T07:11:38.377Z,8160
2018-09-08T07:12:38.603Z,7896
2018-09-08T07:13:38.871Z,7888
2018-09-08T07:14:38.629Z,8120
2018-09-08T07:15:38.626Z,8356
2018-09-08T07:16:38.625Z,8524
2018-09-08T07:17:38.369Z,9008
2018-09-08T07:18:38.634Z,9608
2018-09-08T07:19:38.125Z,10048
2018-09-08T07:20:38.689Z,10260
2018-09-08T07:21:38.912Z,10244
2018-09-08T07:22:38.659Z,10312
2018-09-08T07:23:38.663Z,10356
2018-09-08T07:24:38.677Z,10440
2018-09-08T07:25:38.414Z,10532
2018-09-08T07:26:38.674Z,10548
2018-09-08T07:27:38.926Z,10656
2018-09-08T07:28:38.922Z,10680
2018-09-08T07:29:38.675Z,10556
2018-09-08T07:30:38.464Z,10548
2018-09-08T07:31:38.688Z,10504
2018-09-08T07:32:38.694Z,10508
2018-09-08T07:33:38.701Z,10544
2018-09-08T07:34:38.968Z,10580
2018-09-08T07:35:38.803Z,10588
2018-09-08T07:36:38.464Z,10552
2018-09-08T07:37:38.726Z,10552
2018-09-08T07:38:38.720Z,10564
2018-09-08T07:39:38.731Z,10608
2018-09-08T07:40:38.540Z,10640
2018-09-08T07:41:38.748Z,10652
2018-09-08T07:42:38.751Z,10672
2018-09-08T07:43:38.757Z,10604
2018-09-08T07:44:38.754Z,10520
2018-09-08T07:45:39.079Z,10468
2018-09-08T07:46:38.834Z,10372
2018-09-08T07:47:39.036Z,10304
2018-09-08T07:48:38.533Z,10284
2018-09-08T07:49:38.785Z,10196
2018-09-08T07:50:38.841Z,10144
2018-09-08T07:51:39.325Z,7320
2018-09-08T07:52:38.551Z,6992
2018-09-08T07:53:39.599Z,6808
2018-09-08T07:54:38.578Z,6712
2018-09-08T07:55:38.931Z,6716
2018-09-08T07:56:39.113Z,6708
2018-09-08T07:57:39.102Z,6724
2018-09-08T07:58:39.093Z,6856
2018-09-08T07:59:38.586Z,7204
2018-09-08T08:00:38.906Z,7672
2018-09-08T08:01:38.859Z,8020
2018-09-08T08:02:39.111Z,8324
2018-09-08T08:03:38.881Z,8512
2018-09-08T08:04:38.866Z,8588
2018-09-08T08:05:38.664Z,8712
2018-09-08T08:06:39.233Z,8692
2018-09-08T08:07:38.875Z,8788
2018-09-08T08:08:38.624Z,8908
2018-09-08T08:09:39.157Z,9016
2018-09-08T08:10:39.187Z,9096
2018-09-08T08:11:39.146Z,9172
2018-09-08T08:12:39.191Z,9224
2018-09-08T08:13:38.899Z,9220
2018-09-08T08:14:39.554Z,9192
2018-09-08T08:15:38.995Z,9168
2018-09-08T08:16:38.663Z,9196
2018-09-08T08:17:38.664Z,9140
2018-09-08T08:18:38.406Z,9072
2018-09-08T08:19:38.702Z,9004
2018-09-08T08:20:38.754Z,8948
2018-09-08T08:21:39.249Z,8908
2018-09-08T08:22:38.699Z,8860
2018-09-08T08:23:38.967Z,8816
2018-09-08T08:24:39.252Z,8828
2018-09-08T08:25:38.502Z,8808
2018-09-08T08:26:39.227Z,8808
2018-09-08T08:27:38.717Z,8820
2018-09-08T08:28:39.258Z,8816
2018-09-08T08:29:38.747Z,8816
2018-09-08T08:30:38.804Z,8792
2018-09-08T08:31:39.004Z,8748
2018-09-08T08:32:38.749Z,8744
2018-09-08T08:33:39.021Z,8724
2018-09-08T08:34:39.291Z,8692
2018-09-08T08:35:39.093Z,8644
2018-09-08T08:36:39.309Z,8656
2018-09-08T08:37:39.310Z,8664
2018-09-08T08:38:39.042Z,8656
2018-09-08T08:39:38.795Z,8652
2018-09-08T08:40:38.871Z,8656
2018-09-08T08:41:39.063Z,8656
2018-09-08T08:42:38.539Z,8668
2018-09-08T08:43:38.805Z,8668
2018-09-08T08:44:39.089Z,8660
2018-09-08T08:45:39.105Z,8680
2018-09-08T08:46:39.605Z,8712
2018-09-08T08:47:39.317Z,8708
2018-09-08T08:48:39.069Z,8724
2018-09-08T08:49:39.358Z,8732
2018-09-08T08:50:39.337Z,8736
2018-09-08T08:51:40.977Z,8748
2018-09-08T08:52:39.659Z,8764
2018-09-08T08:53:39.345Z,8776
2018-09-08T08:54:39.339Z,8800
2018-09-08T08:55:39.206Z,8808
2018-09-08T08:56:38.821Z,8816
2018-09-08T08:57:39.104Z,8820
2018-09-08T08:58:39.104Z,8804
2018-09-08T08:59:39.101Z,8808
2018-09-08T09:00:39.520Z,8816
2018-09-08T09:01:38.862Z,8792
2018-09-08T09:02:39.363Z,8832
2018-09-08T09:03:39.361Z,8764
2018-09-08T09:04:38.617Z,8772
2018-09-08T09:05:39.383Z,8768
2018-09-08T09:06:39.372Z,8780
2018-09-08T09:07:39.716Z,8712
2018-09-08T09:08:39.903Z,8684
2018-09-08T09:09:39.121Z,8676
2018-09-08T09:10:39.386Z,8668
2018-09-08T09:11:40.414Z,8640
2018-09-08T09:12:40.325Z,8620
2018-09-08T09:13:39.620Z,8584
2018-09-08T09:14:40.453Z,8556
2018-09-08T09:15:40.688Z,8520
2018-09-08T09:16:39.397Z,8504
2018-09-08T09:17:39.402Z,8496
2018-09-08T09:18:41.702Z,8476
2018-09-08T09:19:39.145Z,8476
2018-09-08T09:20:39.524Z,8436
2018-09-08T09:21:39.140Z,8416
2018-09-08T09:22:39.155Z,8384
2018-09-08T09:23:38.623Z,8348
2018-09-08T09:24:41.342Z,8300
2018-09-08T09:25:39.194Z,8256
2018-09-08T09:26:38.885Z,8220
2018-09-08T09:27:39.408Z,8164
2018-09-08T09:28:39.399Z,8144
2018-09-08T09:29:39.159Z,8112
2018-09-08T09:30:38.685Z,8072
2018-09-08T09:31:39.448Z,8032
2018-09-08T09:32:39.434Z,7992
2018-09-08T09:33:39.181Z,7944
2018-09-08T09:34:38.889Z,7908
2018-09-08T09:35:39.428Z,7876
2018-09-08T09:36:38.915Z,7836
2018-09-08T09:37:39.422Z,7824
2018-09-08T09:38:39.167Z,7712
2018-09-08T09:39:39.427Z,7720
2018-09-08T09:40:39.188Z,7696
2018-09-08T09:41:39.444Z,7680
2018-09-08T09:42:39.441Z,7644
2018-09-08T09:43:39.204Z,7600
2018-09-08T09:44:38.668Z,7564
2018-09-08T09:45:39.454Z,7600
2018-09-08T09:46:39.440Z,7564
2018-09-08T09:47:39.438Z,7544
2018-09-08T09:48:39.184Z,7524
2018-09-08T09:49:39.451Z,7500
2018-09-08T09:50:39.528Z,7460
2018-09-08T09:51:39.193Z,7444
2018-09-08T09:52:39.455Z,7444
2018-09-08T09:53:39.464Z,7392
2018-09-08T09:54:39.484Z,7380
2018-09-08T09:55:39.292Z,7368
2018-09-08T09:56:39.200Z,7348
2018-09-08T09:57:39.484Z,7316
2018-09-08T09:58:39.237Z,7324
2018-09-08T09:59:38.968Z,7296
2018-09-08T10:00:39.294Z,7332
2018-09-08T10:01:39.234Z,7264
2018-09-08T10:02:39.478Z,7224
2018-09-08T10:03:39.219Z,7128
2018-09-08T10:04:39.500Z,7212
2018-09-08T10:05:39.559Z,7208
2018-09-08T10:06:39.583Z,7200
2018-09-08T10:07:39.218Z,7124
2018-09-08T10:08:39.210Z,7168
2018-09-08T10:09:39.477Z,7092
2018-09-08T10:10:39.338Z,7124
2018-09-08T10:11:40.276Z,7096
2018-09-08T10:12:39.494Z,7088
2018-09-08T10:13:39.460Z,7096
2018-09-08T10:14:38.977Z,7052
2018-09-08T10:15:39.239Z,7032
2018-09-08T10:16:38.982Z,7028
2018-09-08T10:17:39.491Z,6992
2018-09-08T10:18:38.720Z,6964
2018-09-08T10:19:38.979Z,6944
2018-09-08T10:20:39.283Z,6924
2018-09-08T10:21:39.243Z,6912
2018-09-08T10:22:39.286Z,6880
2018-09-08T10:23:39.831Z,6848
2018-09-08T10:24:39.525Z,6836
2018-09-08T10:25:39.303Z,6804
2018-09-08T10:26:39.519Z,6776
2018-09-08T10:27:38.747Z,6748
2018-09-08T10:28:39.518Z,6724
2018-09-08T10:29:39.320Z,6712
2018-09-08T10:30:39.576Z,6692
2018-09-08T10:31:39.286Z,6684
2018-09-08T10:32:39.037Z,6668
2018-09-08T10:33:39.027Z,6608
2018-09-08T10:34:39.098Z,6596
2018-09-08T10:35:39.072Z,6596
2018-09-08T10:36:39.022Z,6568
2018-09-08T10:37:39.282Z,6576
2018-09-08T10:38:39.290Z,6532
2018-09-08T10:39:38.777Z,6484
2018-09-08T10:40:39.393Z,6448
2018-09-08T10:41:39.329Z,6452
2018-09-08T10:42:39.593Z,6404
2018-09-08T10:43:39.301Z,6392
2018-09-08T10:44:39.572Z,6376
2018-09-08T10:45:39.108Z,6336
2018-09-08T10:46:39.319Z,6332
2018-09-08T10:47:39.580Z,6308
2018-09-08T10:48:39.085Z,6308
2018-09-08T10:49:39.315Z,6296
2018-09-08T10:50:39.106Z,6288
2018-09-08T10:51:39.594Z,6264
2018-09-08T10:52:39.732Z,6248
2018-09-08T10:53:39.338Z,6232
2018-09-08T10:54:39.071Z,6172
2018-09-08T10:55:39.450Z,6172
2018-09-08T10:56:39.066Z,6160
2018-09-08T10:57:39.073Z,6136
2018-09-08T10:58:38.811Z,6140
2018-09-08T10:59:39.078Z,6100
2018-09-08T11:00:39.157Z,6100
2018-09-08T11:01:39.807Z,6124
2018-09-08T11:02:39.632Z,6124
2018-09-08T11:03:39.593Z,6120
2018-09-08T11:04:39.601Z,6120
2018-09-08T11:05:39.153Z,6084
2018-09-08T11:06:39.455Z,6056
2018-09-08T11:07:39.088Z,6056
2018-09-08T11:08:39.348Z,6048
2018-09-08T11:09:39.622Z,6032
2018-09-08T11:10:39.430Z,6020
2018-09-08T11:11:38.835Z,6016
2018-09-08T11:12:39.090Z,6056
2018-09-08T11:13:38.838Z,6076
2018-09-08T11:14:39.149Z,6064
2018-09-08T11:15:39.640Z,6084
2018-09-08T11:16:38.861Z,6088
2018-09-08T11:17:39.388Z,6116
2018-09-08T11:18:39.451Z,5996
2018-09-08T11:19:39.383Z,6092
2018-09-08T11:20:39.187Z,5108
2018-09-08T11:21:39.128Z,5296
2018-09-08T11:22:39.120Z,5600
2018-09-08T11:23:39.371Z,4300
2018-09-08T11:24:39.130Z,4780
2018-09-08T11:25:39.661Z,4696
2018-09-08T11:26:39.109Z,4132
2018-09-08T11:27:39.175Z,6048
2018-09-08T11:28:39.393Z,5036
2018-09-08T11:29:39.150Z,5748
2018-09-08T11:30:39.713Z,5876
2018-09-08T11:31:39.652Z,5968
2018-09-08T11:32:39.672Z,5952
2018-09-08T11:33:39.666Z,5920
2018-09-08T11:34:39.158Z,5892
2018-09-08T11:35:39.680Z,5892
2018-09-08T11:36:39.151Z,5748
2018-09-08T11:37:39.158Z,5800
2018-09-08T11:38:39.154Z,5824
2018-09-08T11:39:39.669Z,5796
2018-09-08T11:40:39.482Z,5764
2018-09-08T11:41:39.408Z,5740
2018-09-08T11:42:39.413Z,5748
2018-09-08T11:43:39.155Z,5692
2018-09-08T11:44:39.699Z,5684
2018-09-08T11:45:39.492Z,5696
2018-09-08T11:46:39.165Z,5684
2018-09-08T11:47:39.416Z,5704
2018-09-08T11:48:39.151Z,5588
2018-09-08T11:49:39.764Z,5708
2018-09-08T11:50:39.510Z,4688
2018-09-08T11:51:39.154Z,5348
2018-09-08T11:52:39.704Z,5480
2018-09-08T11:53:39.698Z,5540
2018-09-08T11:54:39.680Z,5208
2018-09-08T11:55:39.685Z,5592
2018-09-08T11:56:39.437Z,5588
2018-09-08T11:57:39.446Z,5604
2018-09-08T11:58:39.435Z,5608
2018-09-08T11:59:39.309Z,5500
2018-09-08T12:00:39.483Z,5552
2018-09-08T12:01:39.709Z,5516
2018-09-08T12:02:39.204Z,5424
2018-09-08T12:03:39.193Z,5280
2018-09-08T12:04:39.205Z,5000
2018-09-08T12:05:39.793Z,5204
2018-09-08T12:06:39.620Z,3924
2018-09-08T12:07:39.841Z,5488
2018-09-08T12:08:39.302Z,5184
2018-09-08T12:09:39.472Z,5592
2018-09-08T12:10:39.328Z,5548
2018-09-08T12:11:39.447Z,5472
2018-09-08T12:12:39.471Z,5432
2018-09-08T12:13:39.248Z,5388
2018-09-08T12:14:39.758Z,5508
2018-09-08T12:15:39.490Z,5224
2018-09-08T12:16:39.215Z,5472
2018-09-08T12:17:39.463Z,5420
2018-09-08T12:18:39.751Z,5428
2018-09-08T12:19:39.746Z,5404
2018-09-08T12:20:39.567Z,5376
2018-09-08T12:21:39.232Z,5372
2018-09-08T12:22:40.025Z,5368
2018-09-08T12:23:39.779Z,5368
2018-09-08T12:24:39.761Z,5360
2018-09-08T12:25:39.557Z,5348
2018-09-08T12:26:39.276Z,5340
2018-09-08T12:27:39.504Z,5348
2018-09-08T12:28:39.239Z,5348
2018-09-08T12:29:39.516Z,5320
2018-09-08T12:30:40.395Z,5320
2018-09-08T12:31:39.505Z,5396
2018-09-08T12:32:40.258Z,5224
2018-09-08T12:33:39.518Z,5360
2018-09-08T12:34:39.526Z,5356
2018-09-08T12:35:39.857Z,5356
2018-09-08T12:36:39.782Z,5324
2018-09-08T12:37:39.024Z,5280
2018-09-08T12:38:39.729Z,5288
2018-09-08T12:39:39.271Z,5216
2018-09-08T12:40:39.593Z,5260
2018-09-08T12:41:39.789Z,5292
2018-09-08T12:42:39.792Z,5324
2018-09-08T12:43:39.273Z,5296
2018-09-08T12:44:39.539Z,5256
2018-09-08T12:45:39.542Z,5288
2018-09-08T12:46:39.547Z,5260
2018-09-08T12:47:39.295Z,5284
2018-09-08T12:48:39.545Z,5240
2018-09-08T12:49:39.553Z,4192
2018-09-08T12:50:39.391Z,5228
2018-09-08T12:51:39.563Z,4528
2018-09-08T12:52:39.828Z,4956
2018-09-08T12:53:39.340Z,4976
2018-09-08T12:54:39.564Z,5104
2018-09-08T12:55:39.402Z,5184
2018-09-08T12:56:39.332Z,5184
2018-09-08T12:57:39.579Z,4884
2018-09-08T12:58:39.572Z,5124
2018-09-08T12:59:40.228Z,5076
2018-09-08T13:00:39.949Z,4936
2018-09-08T13:01:39.606Z,5036
2018-09-08T13:02:39.606Z,5104
2018-09-08T13:03:39.327Z,5192
2018-09-08T13:04:39.625Z,5204
2018-09-08T13:05:39.621Z,5168
2018-09-08T13:06:39.601Z,5120
2018-09-08T13:07:39.777Z,5064
2018-09-08T13:08:39.875Z,5016
2018-09-08T13:09:39.877Z,5084
2018-09-08T13:10:39.689Z,4996
2018-09-08T13:11:39.885Z,5088
2018-09-08T13:12:39.874Z,4844
2018-09-08T13:13:39.424Z,4852
2018-09-08T13:14:39.634Z,5008
2018-09-08T13:15:39.662Z,4708
2018-09-08T13:16:39.632Z,4596
2018-09-08T13:17:39.951Z,4688
2018-09-08T13:18:39.903Z,4828
2018-09-08T13:19:39.899Z,5008
2018-09-08T13:20:39.719Z,5108
2018-09-08T13:21:39.634Z,5248
2018-09-08T13:22:39.408Z,5708
2018-09-08T13:23:39.406Z,6424
2018-09-08T13:24:39.658Z,6524
2018-09-08T13:25:39.738Z,6532
2018-09-08T13:26:39.661Z,6872
2018-09-08T13:27:39.655Z,6492
2018-09-08T13:28:39.644Z,6188
2018-09-08T13:29:39.940Z,6852
2018-09-08T13:30:39.947Z,7200
2018-09-08T13:31:39.659Z,7272
2018-09-08T13:32:39.158Z,7628
2018-09-08T13:33:39.700Z,7792
2018-09-08T13:34:39.415Z,7384
2018-09-08T13:35:39.990Z,8012
2018-09-08T13:36:39.728Z,8172
2018-09-08T13:37:39.947Z,8236
2018-09-08T13:38:39.445Z,8360
2018-09-08T13:39:40.358Z,8284
2018-09-08T13:40:39.214Z,8188
2018-09-08T13:41:39.962Z,8060
2018-09-08T13:42:39.756Z,7772
2018-09-08T13:43:39.452Z,7668
2018-09-08T13:44:39.992Z,7512
2018-09-08T13:45:39.740Z,7360